Terminal Aerodrome Forecast
Issued by NWS

Home | Current Version | Previous Version | Text Only | Print | Product List | Glossary On
Versions: 1 2 3 4 5 6 7 8 9 10 11 12
000
FTUS42 KGSP 242329
TAFGMU
TAF
KGMU 242329Z 2500/2524 14007KT P6SM FEW060
     FM250700 VRB03KT P6SM BKN040
     FM251000 00000KT P6SM SCT017 BKN030
     FM251200 11003KT P6SM OVC017
     FM251500 18004KT P6SM BKN024 OVC035
     FM251700 19005KT P6SM SCT040 OVC045 PROB30 2521/2524 4SM TSRA
      OVC030CB=

USA.gov is the U.S. government's official web portal to all federal, state and local government web resources and services.